createdAt,value
2017-11-19T00:02:20.108Z,1.50
2017-11-19T00:04:46.764Z,1.80
2017-11-19T00:07:13.418Z,1.50
2017-11-19T00:09:40.094Z,2.00
2017-11-19T00:12:06.734Z,1.70
2017-11-19T00:14:33.665Z,1.80
2017-11-19T00:17:00.812Z,1.90
2017-11-19T00:19:27.649Z,2.30
2017-11-19T00:21:54.516Z,2.20
2017-11-19T00:24:21.420Z,2.87
2017-11-19T00:26:48.450Z,2.83
2017-11-19T00:29:15.554Z,2.50
2017-11-19T00:31:42.694Z,2.90
2017-11-19T00:34:09.574Z,3.45
2017-11-19T00:36:36.633Z,3.47
2017-11-19T00:39:03.523Z,3.42
2017-11-19T00:41:30.505Z,4.15
2017-11-19T00:43:57.330Z,4.10
2017-11-19T00:46:24.205Z,4.60
2017-11-19T00:48:51.028Z,4.85
2017-11-19T00:51:17.844Z,4.57
2017-11-19T00:53:44.715Z,5.07
2017-11-19T00:56:11.558Z,4.93
2017-11-19T00:58:38.414Z,5.00
2017-11-19T01:01:05.531Z,5.55
2017-11-19T01:03:32.415Z,5.30
2017-11-19T01:05:59.240Z,5.40
2017-11-19T01:08:26.366Z,5.77
2017-11-19T01:10:53.215Z,4.20
2017-11-19T01:13:20.072Z,3.58
2017-11-19T01:15:47.197Z,3.80
2017-11-19T01:18:14.024Z,4.37
2017-11-19T01:20:41.107Z,4.00
2017-11-19T01:23:07.993Z,4.97
2017-11-19T01:25:34.854Z,4.28
2017-11-19T01:28:01.714Z,3.97
2017-11-19T01:30:28.566Z,4.40
2017-11-19T01:32:55.718Z,4.28
2017-11-19T01:35:22.582Z,3.60
2017-11-19T01:37:49.520Z,3.60
2017-11-19T01:40:16.378Z,3.55
2017-11-19T01:42:43.502Z,3.12
2017-11-19T01:45:10.370Z,3.80
2017-11-19T01:47:37.199Z,2.93
2017-11-19T01:50:04.070Z,3.10
2017-11-19T01:52:31.000Z,2.80
2017-11-19T01:54:57.856Z,3.60
2017-11-19T01:57:24.717Z,3.30
2017-11-19T01:59:51.599Z,2.90
2017-11-19T02:02:24.593Z,3.17
2017-11-19T02:04:51.715Z,3.92
2017-11-19T02:07:18.894Z,3.37
2017-11-19T02:09:45.749Z,3.95
2017-11-19T02:12:12.885Z,3.70
2017-11-19T02:14:39.707Z,3.28
2017-11-19T02:17:06.561Z,3.08
2017-11-19T02:19:33.436Z,3.25
2017-11-19T02:22:00.272Z,3.30
2017-11-19T02:24:27.113Z,3.40
2017-11-19T02:26:53.961Z,3.28
2017-11-19T02:29:20.810Z,3.45
2017-11-19T02:31:47.937Z,3.12
2017-11-19T02:34:14.827Z,2.78
2017-11-19T02:36:41.700Z,3.33
2017-11-19T02:39:08.520Z,3.40
2017-11-19T02:41:35.387Z,3.20
2017-11-19T02:44:02.462Z,3.12
2017-11-19T02:46:29.610Z,3.00
2017-11-19T02:48:56.442Z,3.15
2017-11-19T02:51:23.314Z,3.30
2017-11-19T02:53:50.151Z,3.20
2017-11-19T02:56:16.989Z,3.33
2017-11-19T02:58:44.133Z,3.00
2017-11-19T03:01:10.952Z,3.20
2017-11-19T03:03:37.810Z,2.78
2017-11-19T03:06:04.694Z,2.80
2017-11-19T03:08:31.603Z,4.62
2017-11-19T03:10:58.478Z,3.40
2017-11-19T03:13:25.342Z,3.40
2017-11-19T03:15:52.221Z,3.10
2017-11-19T03:18:19.060Z,3.50
2017-11-19T03:20:45.911Z,3.00
2017-11-19T03:23:12.729Z,2.90
2017-11-19T03:25:39.820Z,3.40
2017-11-19T03:28:06.683Z,3.22
2017-11-19T03:30:33.526Z,2.60
2017-11-19T03:33:00.368Z,3.25
2017-11-19T03:35:27.233Z,2.40
2017-11-19T03:37:54.068Z,3.10
2017-11-19T03:40:21.192Z,3.30
2017-11-19T03:42:48.009Z,3.22
2017-11-19T03:45:15.184Z,3.33
2017-11-19T03:47:42.338Z,3.30
2017-11-19T03:50:09.152Z,3.08
2017-11-19T03:52:36.333Z,3.00
2017-11-19T03:55:03.170Z,3.23
2017-11-19T03:57:30.030Z,3.00
2017-11-19T03:59:57.162Z,3.17
2017-11-19T04:02:24.309Z,3.30
2017-11-19T04:04:51.457Z,3.08
2017-11-19T04:07:18.318Z,3.15
2017-11-19T04:09:45.206Z,3.00
2017-11-19T04:12:12.029Z,2.90
2017-11-19T04:14:39.143Z,2.60
2017-11-19T04:17:06.290Z,2.70
2017-11-19T04:19:33.139Z,2.53
2017-11-19T04:22:00.285Z,2.40
2017-11-19T04:24:27.154Z,2.62
2017-11-19T04:26:53.976Z,2.60
2017-11-19T04:29:20.833Z,2.70
2017-11-19T04:31:47.701Z,2.58
2017-11-19T04:34:14.805Z,2.50
2017-11-19T04:36:41.964Z,2.10
2017-11-19T04:39:08.870Z,2.80
2017-11-19T04:41:35.954Z,2.75
2017-11-19T04:44:03.100Z,3.00
2017-11-19T04:46:29.938Z,2.97
2017-11-19T04:48:57.099Z,3.20
2017-11-19T04:51:23.927Z,2.60
2017-11-19T04:53:50.775Z,2.85
2017-11-19T04:56:17.650Z,3.58
2017-11-19T04:58:44.464Z,2.90
2017-11-19T05:01:11.298Z,2.87
2017-11-19T05:03:38.150Z,2.70
2017-11-19T05:06:05.306Z,2.60
2017-11-19T05:08:32.204Z,2.78
2017-11-19T05:10:59.265Z,2.80
2017-11-19T05:13:26.340Z,2.78
2017-11-19T05:15:53.181Z,3.40
2017-11-19T05:18:20.232Z,2.90
2017-11-19T05:20:47.071Z,2.50
2017-11-19T05:23:13.917Z,2.90
2017-11-19T05:25:40.724Z,2.90
2017-11-19T05:28:07.575Z,3.12
2017-11-19T05:30:34.765Z,2.90
2017-11-19T05:33:01.586Z,2.70
2017-11-19T05:35:28.755Z,2.80
2017-11-19T05:37:55.630Z,2.95
2017-11-19T05:40:22.472Z,2.90
2017-11-19T05:42:49.584Z,2.90
2017-11-19T05:45:16.742Z,2.80
2017-11-19T05:47:43.818Z,2.80
2017-11-19T05:50:10.641Z,3.25
2017-11-19T05:52:37.553Z,3.10
2017-11-19T05:55:04.413Z,3.20
2017-11-19T05:57:31.574Z,3.22
2017-11-19T05:59:58.723Z,3.80
2017-11-19T06:02:25.868Z,3.70
2017-11-19T06:04:52.692Z,4.20
2017-11-19T06:07:19.526Z,4.20
2017-11-19T06:09:46.340Z,6.62
2017-11-19T06:12:13.182Z,4.40
2017-11-19T06:14:40.780Z,3.90
2017-11-19T06:17:07.849Z,3.30
2017-11-19T06:19:35.012Z,3.25
2017-11-19T06:22:02.154Z,3.30
2017-11-19T06:24:28.984Z,3.50
2017-11-19T06:26:55.802Z,5.37
2017-11-19T06:29:22.628Z,3.07
2017-11-19T06:31:49.487Z,3.43
2017-11-19T06:34:16.570Z,3.10
2017-11-19T06:36:43.453Z,3.30
2017-11-19T06:39:10.268Z,2.40
2017-11-19T06:41:37.412Z,3.37
2017-11-19T06:44:04.282Z,3.25
2017-11-19T06:46:31.156Z,2.97
2017-11-19T06:48:57.988Z,3.10
2017-11-19T06:51:24.872Z,3.20
2017-11-19T06:53:51.737Z,3.00
2017-11-19T06:56:18.617Z,3.15
2017-11-19T06:58:45.448Z,3.12
2017-11-19T07:01:12.297Z,3.13
2017-11-19T07:03:39.131Z,3.13
2017-11-19T07:06:05.965Z,2.80
2017-11-19T07:08:32.818Z,3.00
2017-11-19T07:10:59.661Z,2.95
2017-11-19T07:13:26.497Z,2.97
2017-11-19T07:15:53.346Z,3.10
2017-11-19T07:18:20.469Z,2.90
2017-11-19T07:20:47.618Z,3.30
2017-11-19T07:23:14.478Z,3.37
2017-11-19T07:25:41.293Z,3.22
2017-11-19T07:28:08.138Z,2.50
2017-11-19T07:30:35.293Z,3.40
2017-11-19T07:33:02.176Z,3.05
2017-11-19T07:35:29.107Z,2.60
2017-11-19T07:37:56.233Z,3.25
2017-11-19T07:40:23.113Z,2.60
2017-11-19T07:42:50.006Z,2.80
2017-11-19T07:45:16.881Z,4.10
2017-11-19T07:47:43.712Z,5.80
2017-11-19T07:50:10.612Z,3.95
2017-11-19T07:52:37.811Z,2.78
2017-11-19T07:55:04.716Z,3.08
2017-11-19T07:57:31.902Z,3.20
2017-11-19T07:59:59.158Z,3.08
2017-11-19T08:02:25.992Z,2.80
2017-11-19T08:04:52.890Z,3.80
2017-11-19T08:07:19.745Z,4.78
2017-11-19T08:09:46.832Z,11.88
2017-11-19T08:12:13.709Z,3.30
2017-11-19T08:14:40.562Z,3.67
2017-11-19T08:17:07.449Z,2.80
2017-11-19T08:19:34.386Z,2.60
2017-11-19T08:22:01.213Z,2.30
2017-11-19T08:24:28.047Z,2.40
2017-11-19T08:26:54.939Z,3.10
2017-11-19T08:29:21.842Z,2.90
2017-11-19T08:31:48.724Z,2.55
2017-11-19T08:34:15.614Z,2.80
2017-11-19T08:36:42.487Z,2.65
2017-11-19T08:39:09.390Z,3.05
2017-11-19T08:41:36.237Z,2.50
2017-11-19T08:44:03.053Z,2.55
2017-11-19T08:46:29.881Z,2.40
2017-11-19T08:48:56.758Z,2.70
2017-11-19T08:51:23.610Z,4.20
2017-11-19T08:53:50.724Z,2.80
2017-11-19T08:56:17.598Z,2.80
2017-11-19T08:58:44.425Z,3.28
2017-11-19T09:01:11.566Z,3.08
2017-11-19T09:03:38.424Z,2.60
2017-11-19T09:06:05.241Z,2.55
2017-11-19T09:08:32.081Z,2.90
2017-11-19T09:10:58.961Z,3.10
2017-11-19T09:13:26.089Z,3.35
2017-11-19T09:15:53.144Z,3.50
2017-11-19T09:18:19.980Z,5.03
2017-11-19T09:20:46.818Z,3.15
2017-11-19T09:23:14.572Z,3.10
2017-11-19T09:25:41.436Z,2.60
2017-11-19T09:28:08.779Z,3.00
2017-11-19T09:30:35.605Z,3.12
2017-11-19T09:33:02.450Z,2.55
2017-11-19T09:35:30.462Z,2.80
2017-11-19T09:37:57.244Z,2.65
2017-11-19T09:40:26.808Z,3.10
2017-11-19T09:42:55.295Z,3.62
2017-11-19T09:45:22.157Z,3.60
2017-11-19T09:47:49.012Z,3.62
2017-11-19T09:50:15.825Z,4.55
2017-11-19T09:52:42.679Z,3.70
2017-11-19T09:55:09.562Z,3.80
2017-11-19T09:57:36.435Z,3.95
2017-11-19T10:00:03.697Z,3.60
2017-11-19T10:02:30.832Z,3.30
2017-11-19T10:04:57.698Z,3.67
2017-11-19T10:07:24.518Z,3.90
2017-11-19T10:09:51.387Z,3.23
2017-11-19T10:12:18.513Z,3.60
2017-11-19T10:17:29.042Z,3.00
2017-11-19T10:19:55.885Z,3.50
2017-11-19T10:22:22.671Z,4.00
2017-11-19T10:24:49.524Z,3.60
2017-11-19T10:27:16.315Z,4.30
2017-11-19T10:29:43.114Z,3.50
2017-11-19T10:32:09.946Z,3.65
2017-11-19T10:34:36.755Z,3.70
2017-11-19T10:37:03.555Z,3.87
2017-11-19T10:39:30.409Z,4.10
2017-11-19T10:41:57.236Z,4.20
2017-11-19T10:44:24.068Z,4.93
2017-11-19T10:46:50.856Z,4.23
2017-11-19T10:49:17.947Z,3.70
2017-11-19T10:51:44.747Z,4.70
2017-11-19T10:54:11.544Z,4.28
2017-11-19T10:56:38.355Z,4.35
2017-11-19T10:59:05.169Z,3.53
2017-11-19T11:01:32.263Z,4.37
2017-11-19T11:03:59.068Z,4.10
2017-11-19T11:06:26.167Z,4.20
2017-11-19T11:08:53.308Z,4.10
2017-11-19T11:11:20.457Z,4.07
2017-11-19T11:13:47.316Z,3.70
2017-11-19T11:16:14.465Z,3.60
2017-11-19T11:18:41.810Z,3.80
2017-11-19T11:21:08.849Z,4.27
2017-11-19T11:23:35.895Z,3.70
2017-11-19T11:26:02.949Z,3.47
2017-11-19T11:28:29.756Z,3.63
2017-11-19T11:30:56.575Z,3.30
2017-11-19T11:33:23.388Z,3.20
2017-11-19T11:35:50.526Z,3.55
2017-11-19T11:38:17.311Z,3.40
2017-11-19T11:40:44.411Z,3.00
2017-11-19T11:43:11.569Z,2.87
2017-11-19T11:45:38.376Z,3.17
2017-11-19T11:48:05.253Z,2.67
2017-11-19T11:50:32.405Z,2.53
2017-11-19T11:52:59.219Z,2.80
2017-11-19T11:55:26.027Z,2.72
2017-11-19T11:57:52.849Z,2.60
2017-11-19T12:00:19.981Z,2.70
2017-11-19T12:02:47.134Z,2.60
2017-11-19T12:05:13.922Z,2.60
2017-11-19T12:07:41.029Z,2.67
2017-11-19T12:10:08.073Z,2.60
2017-11-19T12:12:34.881Z,2.15
2017-11-19T12:15:02.065Z,2.10
2017-11-19T12:17:28.851Z,3.65
2017-11-19T12:19:55.956Z,2.15
2017-11-19T12:22:22.784Z,2.10
2017-11-19T12:24:49.568Z,2.30
2017-11-19T12:27:16.416Z,2.28
2017-11-19T12:29:43.222Z,2.35
2017-11-19T12:32:10.033Z,2.40
2017-11-19T12:34:36.893Z,2.10
2017-11-19T12:37:03.679Z,2.00
2017-11-19T12:39:30.513Z,1.90
2017-11-19T12:41:57.360Z,1.77
2017-11-19T12:44:24.161Z,2.05
2017-11-19T12:46:51.333Z,2.10
2017-11-19T12:49:18.590Z,2.00
2017-11-19T12:51:45.396Z,1.98
2017-11-19T12:54:12.219Z,2.00
2017-11-19T12:56:39.037Z,1.90
2017-11-19T12:59:14.004Z,1.90
2017-11-19T13:01:42.837Z,1.83
2017-11-19T13:04:09.989Z,2.10
2017-11-19T13:06:36.840Z,2.10
2017-11-19T13:09:04.116Z,6.70
2017-11-19T13:11:31.233Z,2.17
2017-11-19T13:13:58.066Z,1.60
2017-11-19T13:16:24.905Z,1.85
2017-11-19T13:18:51.718Z,2.20
2017-11-19T13:21:18.788Z,2.00
2017-11-19T13:23:46.169Z,2.17
2017-11-19T13:26:13.065Z,1.85
2017-11-19T13:28:40.593Z,1.77
2017-11-19T13:31:08.018Z,2.12
2017-11-19T13:33:36.177Z,2.45
2017-11-19T13:36:03.649Z,1.90
2017-11-19T13:38:31.600Z,2.08
2017-11-19T13:41:00.303Z,2.20
2017-11-19T13:43:27.681Z,2.00
2017-11-19T13:45:55.008Z,1.90
2017-11-19T13:48:22.692Z,1.98
2017-11-19T13:50:50.207Z,2.10
2017-11-19T13:53:18.045Z,2.78
2017-11-19T13:55:45.767Z,1.87
2017-11-19T13:58:13.326Z,2.05
2017-11-19T14:00:40.989Z,2.10
2017-11-19T14:03:08.352Z,4.22
2017-11-19T14:05:35.153Z,4.28
2017-11-19T14:08:02.309Z,5.20
2017-11-19T14:10:29.125Z,5.05
2017-11-19T14:12:55.953Z,4.50
2017-11-19T14:15:23.082Z,2.40
2017-11-19T14:17:49.904Z,2.20
2017-11-19T14:20:16.972Z,2.15
2017-11-19T14:22:43.818Z,2.17
2017-11-19T14:25:11.053Z,2.28
2017-11-19T14:27:37.852Z,2.30
2017-11-19T14:30:04.731Z,1.90
2017-11-19T14:32:31.799Z,2.00
2017-11-19T14:34:58.803Z,2.10
2017-11-19T14:37:25.621Z,1.90
2017-11-19T14:39:52.741Z,1.90
2017-11-19T14:42:19.530Z,1.98
2017-11-19T14:44:46.396Z,1.42
2017-11-19T14:47:13.204Z,1.75
2017-11-19T14:49:40.022Z,1.83
2017-11-19T14:52:07.159Z,1.85
2017-11-19T14:54:34.213Z,2.95
2017-11-19T14:57:01.365Z,3.67
2017-11-19T14:59:28.168Z,2.42
2017-11-19T15:01:55.254Z,2.00
2017-11-19T15:04:22.047Z,2.20
2017-11-19T15:06:48.906Z,2.27
2017-11-19T15:09:15.688Z,3.00
2017-11-19T15:11:42.510Z,2.20
2017-11-19T15:14:09.317Z,2.30
2017-11-19T15:16:36.153Z,2.05
2017-11-19T15:19:02.994Z,2.40
2017-11-19T15:21:30.097Z,5.20
2017-11-19T15:23:56.958Z,2.30
2017-11-19T15:26:23.781Z,1.50
2017-11-19T15:28:50.640Z,1.60
2017-11-19T15:31:17.464Z,1.75
2017-11-19T15:33:44.276Z,1.60
2017-11-19T15:36:11.464Z,1.77
2017-11-19T15:38:38.272Z,1.60
2017-11-19T15:41:05.067Z,1.95
2017-11-19T15:43:31.892Z,2.00
2017-11-19T15:45:58.682Z,1.48
2017-11-19T15:48:25.497Z,1.37
2017-11-19T15:50:52.381Z,1.97
2017-11-19T15:53:19.163Z,1.70
2017-11-19T15:55:45.948Z,2.47
2017-11-19T15:58:12.800Z,3.10
2017-11-19T16:00:39.897Z,1.87
2017-11-19T16:03:06.703Z,1.70
2017-11-19T16:05:33.515Z,1.75
2017-11-19T16:08:00.393Z,1.58
2017-11-19T16:10:27.467Z,1.60
2017-11-19T16:12:54.621Z,1.33
2017-11-19T16:15:21.776Z,1.90
2017-11-19T16:17:48.583Z,1.20
2017-11-19T16:20:15.433Z,1.48
2017-11-19T16:22:42.273Z,1.50
2017-11-19T16:25:09.119Z,1.30
2017-11-19T16:27:35.939Z,1.10
2017-11-19T16:30:03.036Z,1.00
2017-11-19T16:32:29.828Z,1.30
2017-11-19T16:34:56.672Z,1.53
2017-11-19T16:37:23.489Z,1.20
2017-11-19T16:39:50.305Z,1.30
2017-11-19T16:42:17.111Z,1.40
2017-11-19T16:44:43.948Z,3.10
2017-11-19T16:47:10.788Z,2.10
2017-11-19T16:49:37.628Z,1.20
2017-11-19T16:52:04.440Z,1.20
2017-11-19T16:54:31.224Z,1.42
2017-11-19T16:56:58.031Z,1.60
2017-11-19T16:59:25.158Z,1.30
2017-11-19T17:01:51.986Z,1.15
2017-11-19T17:04:18.815Z,1.58
2017-11-19T17:06:45.615Z,1.40
2017-11-19T17:09:12.456Z,1.10
2017-11-19T17:11:39.571Z,1.60
2017-11-19T17:14:06.393Z,1.20
2017-11-19T17:16:33.176Z,1.50
2017-11-19T17:19:00.309Z,1.20
2017-11-19T17:21:27.136Z,1.52
2017-11-19T17:23:53.945Z,2.00
2017-11-19T17:26:20.781Z,1.58
2017-11-19T17:28:47.611Z,1.60
2017-11-19T17:31:14.395Z,1.50
2017-11-19T17:33:41.463Z,5.12
2017-11-19T17:36:08.516Z,1.80
2017-11-19T17:38:35.345Z,1.50
2017-11-19T17:41:02.161Z,1.30
2017-11-19T17:43:28.961Z,1.30
2017-11-19T17:45:56.098Z,1.57
2017-11-19T17:48:22.903Z,1.37
2017-11-19T17:50:49.729Z,1.50
2017-11-19T17:53:16.545Z,1.27
2017-11-19T17:55:43.415Z,1.10
2017-11-19T17:58:10.699Z,1.70
2017-11-19T18:00:37.763Z,2.00
2017-11-19T18:03:04.617Z,3.28
2017-11-19T18:05:31.432Z,1.20
2017-11-19T18:07:58.504Z,1.10
2017-11-19T18:10:25.361Z,1.00
2017-11-19T18:12:52.194Z,1.10
2017-11-19T18:15:19.033Z,1.20
2017-11-19T18:17:45.845Z,1.20
2017-11-19T18:20:12.624Z,1.30
2017-11-19T18:22:39.659Z,1.40
2017-11-19T18:25:06.482Z,1.40
2017-11-19T18:27:33.304Z,1.80
2017-11-19T18:30:00.348Z,1.45
2017-11-19T18:32:27.156Z,3.97
2017-11-19T18:34:53.982Z,4.10
2017-11-19T18:37:20.763Z,3.20
2017-11-19T18:39:47.580Z,1.70
2017-11-19T18:42:14.364Z,2.40
2017-11-19T18:44:41.148Z,1.90
2017-11-19T18:47:07.993Z,1.77
2017-11-19T18:49:34.801Z,2.00
2017-11-19T18:52:01.628Z,1.40
2017-11-19T18:54:28.481Z,1.50
2017-11-19T18:56:55.275Z,1.23
2017-11-19T18:59:22.076Z,5.43
2017-11-19T19:01:48.916Z,1.90
2017-11-19T19:04:15.743Z,1.40
2017-11-19T19:06:42.556Z,1.50
2017-11-19T19:09:09.360Z,1.12
2017-11-19T19:11:36.147Z,1.60
2017-11-19T19:14:02.939Z,1.43
2017-11-19T19:16:30.005Z,1.40
2017-11-19T19:18:56.821Z,1.40
2017-11-19T19:21:23.869Z,1.13
2017-11-19T19:23:50.705Z,1.30
2017-11-19T19:26:17.491Z,1.30
2017-11-19T19:28:44.626Z,1.60
2017-11-19T19:32:17.959Z,1.45
2017-11-19T19:34:44.740Z,1.85
2017-11-19T19:37:11.829Z,1.30
2017-11-19T19:39:38.669Z,2.90
2017-11-19T19:42:05.711Z,3.58
2017-11-19T19:44:32.764Z,1.70
2017-11-19T19:46:59.571Z,1.83
2017-11-19T19:49:28.426Z,1.90
2017-11-19T19:51:55.600Z,1.25
2017-11-19T19:54:22.869Z,1.50
2017-11-19T19:56:50.494Z,1.50
2017-11-19T19:59:19.533Z,2.25
2017-11-19T20:01:47.120Z,3.00
2017-11-19T20:04:14.945Z,1.90
2017-11-19T20:06:42.938Z,2.00
2017-11-19T20:09:11.135Z,1.90
2017-11-19T20:11:38.476Z,2.40
2017-11-19T20:14:06.065Z,2.20
2017-11-19T20:16:34.262Z,1.80
2017-11-19T20:19:01.805Z,2.17
2017-11-19T20:21:29.562Z,2.10
2017-11-19T20:23:58.158Z,2.00
2017-11-19T20:26:25.428Z,1.85
2017-11-19T20:28:53.563Z,1.90
2017-11-19T20:31:20.772Z,1.80
2017-11-19T20:33:49.308Z,4.20
2017-11-19T20:36:16.937Z,10.80
2017-11-19T20:38:45.018Z,3.33
2017-11-19T20:41:12.750Z,1.73
2017-11-19T20:43:40.154Z,1.90
2017-11-19T20:46:07.490Z,2.00
2017-11-19T20:48:35.118Z,1.80
2017-11-19T20:51:03.549Z,2.30
2017-11-19T20:53:31.133Z,1.50
2017-11-19T20:55:58.488Z,2.47
2017-11-19T20:58:26.424Z,1.85
2017-11-19T21:00:54.251Z,1.85
2017-11-19T21:03:22.345Z,3.40
2017-11-19T21:05:50.217Z,9.60
2017-11-19T21:08:18.558Z,5.62
2017-11-19T21:10:46.741Z,2.80
2017-11-19T21:13:15.128Z,4.65
2017-11-19T21:15:43.034Z,3.00
2017-11-19T21:18:11.184Z,1.40
2017-11-19T21:20:39.729Z,1.75
2017-11-19T21:23:09.056Z,2.90
2017-11-19T21:25:37.764Z,1.40
2017-11-19T21:28:05.643Z,1.50
2017-11-19T21:30:33.492Z,1.20
2017-11-19T21:33:00.956Z,1.48
2017-11-19T21:35:28.821Z,1.60
2017-11-19T21:37:57.759Z,1.40
2017-11-19T21:40:25.828Z,1.48
2017-11-19T21:42:54.399Z,3.35
2017-11-19T21:45:23.215Z,3.53
2017-11-19T21:47:52.188Z,1.62
2017-11-19T21:50:19.417Z,1.55
2017-11-19T21:52:46.324Z,2.05
2017-11-19T21:55:13.136Z,2.62
2017-11-19T21:57:40.237Z,3.15
2017-11-19T22:00:07.409Z,2.35
2017-11-19T22:02:34.260Z,4.17
2017-11-19T22:05:01.036Z,2.20
2017-11-19T22:07:27.925Z,2.50
2017-11-19T22:09:54.708Z,3.20
2017-11-19T22:12:21.533Z,1.80
2017-11-19T22:14:48.667Z,1.60
2017-11-19T22:17:15.716Z,1.48
2017-11-19T22:19:42.533Z,1.40
2017-11-19T22:22:09.820Z,1.45
2017-11-19T22:24:36.627Z,1.37
2017-11-19T22:27:03.469Z,1.52
2017-11-19T22:29:30.313Z,1.45
2017-11-19T22:31:57.129Z,1.50
2017-11-19T22:34:23.948Z,1.20
2017-11-19T22:36:50.767Z,1.50
2017-11-19T22:39:17.594Z,1.60
2017-11-19T22:41:44.390Z,1.50
2017-11-19T22:44:11.249Z,1.20
2017-11-19T22:46:38.023Z,1.48
2017-11-19T22:49:04.819Z,1.20
2017-11-19T22:51:31.802Z,1.23
2017-11-19T22:53:58.580Z,1.10
2017-11-19T22:56:25.397Z,1.80
2017-11-19T22:58:52.324Z,1.40
2017-11-19T23:01:19.115Z,1.30
2017-11-19T23:03:46.247Z,1.20
2017-11-19T23:06:13.101Z,1.27
2017-11-19T23:08:40.152Z,1.20
2017-11-19T23:11:07.294Z,1.70
2017-11-19T23:13:34.341Z,1.20
2017-11-19T23:16:01.135Z,1.30
2017-11-19T23:18:27.915Z,1.30
2017-11-19T23:20:54.772Z,1.80
2017-11-19T23:23:24.896Z,1.20
2017-11-19T23:25:54.194Z,2.15
2017-11-19T23:28:24.798Z,5.23
2017-11-19T23:30:56.902Z,2.85
2017-11-19T23:33:26.685Z,1.50
2017-11-19T23:35:55.167Z,1.43
2017-11-19T23:38:24.868Z,1.20
2017-11-19T23:40:53.685Z,1.20
2017-11-19T23:43:20.508Z,1.20
2017-11-19T23:45:51.778Z,1.25
2017-11-19T23:48:20.226Z,1.48
2017-11-19T23:50:50.008Z,1.40
2017-11-19T23:53:16.837Z,1.20
2017-11-19T23:55:43.676Z,1.20
2017-11-19T23:58:10.490Z,1.30
